createdAt,value
2023-10-03T00:00:48.687Z,1012.06
2023-10-03T00:01:48.668Z,1012.04
2023-10-03T00:02:48.759Z,1012.04
2023-10-03T00:03:48.729Z,1012.01
2023-10-03T00:04:48.662Z,1011.97
2023-10-03T00:05:48.730Z,1011.96
2023-10-03T00:06:48.676Z,1011.93
2023-10-03T00:07:48.675Z,1011.90
2023-10-03T00:08:48.675Z,1011.87
2023-10-03T00:09:48.667Z,1011.87
2023-10-03T00:10:48.670Z,1011.88
2023-10-03T00:11:48.735Z,1011.85
2023-10-03T00:12:48.665Z,1011.79
2023-10-03T00:13:48.672Z,1011.80
2023-10-03T00:14:48.683Z,1011.79
2023-10-03T00:15:48.684Z,1011.76
2023-10-03T00:16:48.671Z,1011.73
2023-10-03T00:17:48.805Z,1011.70
2023-10-03T00:18:48.666Z,1011.70
2023-10-03T00:19:48.687Z,1011.70
2023-10-03T00:20:48.893Z,1011.70
2023-10-03T00:21:48.663Z,1011.69
2023-10-03T00:22:48.663Z,1011.67
2023-10-03T00:23:48.693Z,1011.68
2023-10-03T00:24:48.660Z,1011.69
2023-10-03T00:25:48.671Z,1011.63
2023-10-03T00:26:48.676Z,1011.63
2023-10-03T00:27:48.662Z,1011.60
2023-10-03T00:28:48.668Z,1011.60
2023-10-03T00:29:48.719Z,1011.64
2023-10-03T00:30:48.671Z,1011.53
2023-10-03T00:31:48.692Z,1011.55
2023-10-03T00:32:48.714Z,1011.53
2023-10-03T00:33:48.681Z,1011.53
2023-10-03T00:34:48.658Z,1011.48
2023-10-03T00:35:48.780Z,1011.48
2023-10-03T00:36:48.653Z,1011.47
2023-10-03T00:37:48.664Z,1011.44
2023-10-03T00:38:48.676Z,1011.45
2023-10-03T00:39:48.661Z,1011.40
2023-10-03T00:40:48.655Z,1011.37
2023-10-03T00:41:48.675Z,1011.36
2023-10-03T00:42:48.655Z,1011.35
2023-10-03T00:43:48.659Z,1011.33
2023-10-03T00:44:48.677Z,1011.33
2023-10-03T00:45:48.663Z,1011.31
2023-10-03T00:46:48.688Z,1011.33
2023-10-03T00:47:48.766Z,1011.32
2023-10-03T00:48:48.685Z,1011.26
2023-10-03T00:49:48.658Z,1011.22
2023-10-03T00:50:48.724Z,1011.18
2023-10-03T00:51:48.656Z,1011.18
2023-10-03T00:52:48.657Z,1011.16
2023-10-03T00:53:48.663Z,1011.16
2023-10-03T00:54:48.658Z,1011.16
2023-10-03T00:55:48.659Z,1011.11
2023-10-03T00:56:48.791Z,1011.09
2023-10-03T00:57:48.659Z,1011.07
2023-10-03T00:58:48.649Z,1011.10
2023-10-03T00:59:48.674Z,1011.03
2023-10-03T01:00:48.683Z,1011.02
2023-10-03T01:01:48.660Z,1011.03
2023-10-03T01:02:48.755Z,1011.01
2023-10-03T01:03:48.989Z,1010.94
2023-10-03T01:04:48.651Z,1010.96
2023-10-03T01:05:48.668Z,1010.97
2023-10-03T01:06:48.666Z,1010.98
2023-10-03T01:07:48.657Z,1010.98
2023-10-03T01:08:49.138Z,1010.95
2023-10-03T01:09:48.652Z,1010.90
2023-10-03T01:10:48.649Z,1010.91
2023-10-03T01:11:48.716Z,1010.93
2023-10-03T01:12:48.652Z,1010.92
2023-10-03T01:13:49.044Z,1010.93
2023-10-03T01:14:48.673Z,1010.85
2023-10-03T01:15:48.647Z,1010.86
2023-10-03T01:16:48.702Z,1010.83
2023-10-03T01:17:48.737Z,1010.83
2023-10-03T01:18:48.666Z,1010.82
2023-10-03T01:19:48.674Z,1010.86
2023-10-03T01:20:48.703Z,1010.84
2023-10-03T01:21:48.660Z,1010.83
2023-10-03T01:22:48.648Z,1010.80
2023-10-03T01:23:48.671Z,1010.81
2023-10-03T01:24:48.646Z,1010.76
2023-10-03T01:25:48.652Z,1010.76
2023-10-03T01:26:48.662Z,1010.76
2023-10-03T01:27:48.658Z,1010.73
2023-10-03T01:28:48.647Z,1010.75
2023-10-03T01:29:48.665Z,1010.73
2023-10-03T01:30:48.661Z,1010.74
2023-10-03T01:31:48.657Z,1010.74
2023-10-03T01:32:48.715Z,1010.75
2023-10-03T01:33:48.652Z,1010.75
2023-10-03T01:34:48.650Z,1010.71
2023-10-03T01:35:48.741Z,1010.68
2023-10-03T01:36:48.641Z,1010.66
2023-10-03T01:37:48.648Z,1010.65
2023-10-03T01:38:48.666Z,1010.66
2023-10-03T01:39:48.649Z,1010.67
2023-10-03T01:40:48.652Z,1010.67
2023-10-03T01:41:48.682Z,1010.67
2023-10-03T01:42:48.660Z,1010.67
2023-10-03T01:43:48.656Z,1010.65
2023-10-03T01:44:48.667Z,1010.65
2023-10-03T01:45:48.647Z,1010.59
2023-10-03T01:46:48.731Z,1010.60
2023-10-03T01:47:48.679Z,1010.61
2023-10-03T01:48:48.654Z,1010.59
2023-10-03T01:49:48.642Z,1010.58
2023-10-03T01:50:48.695Z,1010.56
2023-10-03T01:51:48.674Z,1010.54
2023-10-03T01:52:48.642Z,1010.56
2023-10-03T01:53:48.694Z,1010.54
2023-10-03T01:54:48.640Z,1010.59
2023-10-03T01:55:48.643Z,1010.56
2023-10-03T01:56:48.675Z,1010.56
2023-10-03T01:57:48.644Z,1010.53
2023-10-03T01:58:48.645Z,1010.51
2023-10-03T01:59:48.682Z,1010.46
2023-10-03T02:00:48.641Z,1010.47
2023-10-03T02:01:48.754Z,1010.43
2023-10-03T02:02:48.769Z,1010.36
2023-10-03T02:03:48.744Z,1010.37
2023-10-03T02:04:48.963Z,1010.37
2023-10-03T02:05:48.700Z,1010.40
2023-10-03T02:06:48.633Z,1010.35
2023-10-03T02:07:48.697Z,1010.31
2023-10-03T02:08:48.725Z,1010.33
2023-10-03T02:09:48.647Z,1010.33
2023-10-03T02:10:48.634Z,1010.32
2023-10-03T02:11:48.654Z,1010.28
2023-10-03T02:12:48.640Z,1010.26
2023-10-03T02:13:49.116Z,1010.23
2023-10-03T02:14:48.763Z,1010.19
2023-10-03T02:15:48.745Z,1010.22
2023-10-03T02:16:48.637Z,1010.21
2023-10-03T02:17:48.703Z,1010.18
2023-10-03T02:18:48.631Z,1010.21
2023-10-03T02:19:48.636Z,1010.15
2023-10-03T02:20:48.907Z,1010.12
2023-10-03T02:21:48.638Z,1010.09
2023-10-03T02:22:48.632Z,1010.05
2023-10-03T02:23:48.709Z,1010.00
2023-10-03T02:24:48.629Z,1010.03
2023-10-03T02:25:48.633Z,1010.02
2023-10-03T02:26:48.652Z,1010.00
2023-10-03T02:27:48.662Z,1010.00
2023-10-03T02:28:48.640Z,1009.99
2023-10-03T02:29:48.666Z,1009.94
2023-10-03T02:30:48.769Z,1009.96
2023-10-03T02:31:48.657Z,1009.94
2023-10-03T02:32:48.703Z,1009.90
2023-10-03T02:33:48.634Z,1009.88
2023-10-03T02:34:48.623Z,1009.83
2023-10-03T02:35:50.791Z,1009.81
2023-10-03T02:36:48.630Z,1009.78
2023-10-03T02:37:48.635Z,1009.78
2023-10-03T02:38:48.664Z,1009.76
2023-10-03T02:39:48.651Z,1009.74
2023-10-03T02:40:48.623Z,1009.69
2023-10-03T02:41:48.667Z,1009.68
2023-10-03T02:42:48.619Z,1009.65
2023-10-03T02:43:48.628Z,1009.67
2023-10-03T02:44:48.637Z,1009.63
2023-10-03T02:45:48.647Z,1009.62
2023-10-03T02:46:48.621Z,1009.61
2023-10-03T02:47:48.687Z,1009.57
2023-10-03T02:48:48.620Z,1009.56
2023-10-03T02:49:48.620Z,1009.54
2023-10-03T02:50:48.658Z,1009.55
2023-10-03T02:51:48.623Z,1009.47
2023-10-03T02:52:48.619Z,1009.47
2023-10-03T02:53:48.686Z,1009.45
2023-10-03T02:54:48.616Z,1009.40
2023-10-03T02:55:48.641Z,1009.38
2023-10-03T02:56:48.666Z,1009.38
2023-10-03T02:57:48.621Z,1009.37
2023-10-03T02:58:48.620Z,1009.32
2023-10-03T02:59:48.683Z,1009.33
2023-10-03T03:00:48.725Z,1009.30
2023-10-03T03:01:48.622Z,1009.28
2023-10-03T03:02:48.807Z,1009.18
2023-10-03T03:03:48.699Z,1009.21
2023-10-03T03:04:48.613Z,1009.19
2023-10-03T03:05:48.664Z,1009.15
2023-10-03T03:06:48.613Z,1009.12
2023-10-03T03:07:48.619Z,1009.12
2023-10-03T03:08:48.642Z,1009.09
2023-10-03T03:09:48.628Z,1009.11
2023-10-03T03:10:48.611Z,1009.08
2023-10-03T03:11:48.691Z,1009.05
2023-10-03T03:12:48.607Z,1009.02
2023-10-03T03:13:48.623Z,1009.01
2023-10-03T03:14:48.622Z,1008.98
2023-10-03T03:15:48.665Z,1008.99
2023-10-03T03:16:48.616Z,1008.90
2023-10-03T03:17:48.795Z,1008.87
2023-10-03T03:18:48.639Z,1008.88
2023-10-03T03:19:48.614Z,1008.85
2023-10-03T03:20:48.649Z,1008.84
2023-10-03T03:21:48.612Z,1008.85
2023-10-03T03:22:48.610Z,1008.83
2023-10-03T03:23:48.715Z,1008.82
2023-10-03T03:24:48.604Z,1008.84
2023-10-03T03:25:48.614Z,1008.78
2023-10-03T03:26:48.972Z,1008.78
2023-10-03T03:27:48.636Z,1008.75
2023-10-03T03:28:48.606Z,1008.79
2023-10-03T03:29:48.658Z,1008.76
2023-10-03T03:30:48.604Z,1008.74
2023-10-03T03:31:48.635Z,1008.76
2023-10-03T03:32:48.643Z,1008.72
2023-10-03T03:33:48.666Z,1008.69
2023-10-03T03:34:48.606Z,1008.68
2023-10-03T03:35:48.647Z,1008.67
2023-10-03T03:36:48.607Z,1008.69
2023-10-03T03:37:48.603Z,1008.68
2023-10-03T03:38:48.696Z,1008.64
2023-10-03T03:39:48.602Z,1008.64
2023-10-03T03:40:48.620Z,1008.52
2023-10-03T03:41:48.662Z,1008.48
2023-10-03T03:42:48.604Z,1008.41
2023-10-03T03:43:48.619Z,1008.43
2023-10-03T03:44:48.654Z,1008.43
2023-10-03T03:45:48.631Z,1008.39
2023-10-03T03:46:48.601Z,1008.39
2023-10-03T03:47:48.644Z,1008.36
2023-10-03T03:48:48.852Z,1008.33
2023-10-03T03:49:48.601Z,1008.33
2023-10-03T03:50:48.630Z,1008.28
2023-10-03T03:51:48.737Z,1008.33
2023-10-03T03:52:48.596Z,1008.30
2023-10-03T03:53:48.666Z,1008.28
2023-10-03T03:54:48.599Z,1008.26
2023-10-03T03:55:48.593Z,1008.24
2023-10-03T03:56:48.643Z,1008.22
2023-10-03T03:57:48.602Z,1008.22
2023-10-03T03:58:48.598Z,1008.21
2023-10-03T03:59:48.767Z,1008.19
2023-10-03T04:00:48.637Z,1008.16
2023-10-03T04:01:48.590Z,1008.13
2023-10-03T04:02:48.654Z,1008.13
2023-10-03T04:03:48.673Z,1008.09
2023-10-03T04:04:48.593Z,1008.07
2023-10-03T04:05:48.716Z,1008.05
2023-10-03T04:06:48.589Z,1008.07
2023-10-03T04:07:48.585Z,1008.04
2023-10-03T04:09:03.915Z,1008.10
2023-10-03T04:09:48.586Z,1008.06
2023-10-03T04:10:48.591Z,1008.08
2023-10-03T04:11:48.611Z,1008.11
2023-10-03T04:12:48.587Z,1008.09
2023-10-03T04:13:48.587Z,1008.12
2023-10-03T04:14:48.611Z,1008.12
2023-10-03T04:15:48.646Z,1008.08
2023-10-03T04:16:48.584Z,1008.06
2023-10-03T04:17:48.647Z,1008.05
2023-10-03T04:18:48.596Z,1008.03
2023-10-03T04:19:48.584Z,1007.97
2023-10-03T04:20:48.630Z,1007.98
2023-10-03T04:21:48.575Z,1007.96
2023-10-03T04:22:48.579Z,1007.96
2023-10-03T04:23:48.645Z,1007.99
2023-10-03T04:24:48.727Z,1007.99
2023-10-03T04:25:48.581Z,1007.95
2023-10-03T04:26:48.659Z,1007.94
2023-10-03T04:27:48.573Z,1007.90
2023-10-03T04:28:48.590Z,1007.93
2023-10-03T04:29:48.708Z,1007.88
2023-10-03T04:30:48.579Z,1007.86
2023-10-03T04:31:48.745Z,1007.90
2023-10-03T04:32:48.647Z,1007.87
2023-10-03T04:33:48.718Z,1007.91
2023-10-03T04:34:48.604Z,1007.89
2023-10-03T04:35:48.609Z,1007.91
2023-10-03T04:36:48.885Z,1007.88
2023-10-03T04:37:48.573Z,1007.89
2023-10-03T04:38:48.652Z,1007.89
2023-10-03T04:39:48.566Z,1007.87
2023-10-03T04:40:48.571Z,1007.83
2023-10-03T04:41:48.644Z,1007.81
2023-10-03T04:42:48.602Z,1007.77
2023-10-03T04:43:48.567Z,1007.76
2023-10-03T04:44:48.598Z,1007.74
2023-10-03T04:45:48.636Z,1007.70
2023-10-03T04:46:48.573Z,1007.74
2023-10-03T04:47:48.741Z,1007.78
2023-10-03T04:48:48.606Z,1007.73
2023-10-03T04:49:48.565Z,1007.74
2023-10-03T04:50:48.638Z,1007.73
2023-10-03T04:51:49.125Z,1007.73
2023-10-03T04:52:48.571Z,1007.67
2023-10-03T04:53:48.603Z,1007.67
2023-10-03T04:54:48.565Z,1007.65
2023-10-03T04:55:48.563Z,1007.65
2023-10-03T04:56:48.604Z,1007.64
2023-10-03T04:57:48.568Z,1007.66
2023-10-03T04:58:48.561Z,1007.59
2023-10-03T04:59:48.644Z,1007.64
2023-10-03T05:00:48.611Z,1007.59
2023-10-03T05:01:48.558Z,1007.60
2023-10-03T05:02:48.703Z,1007.61
2023-10-03T05:03:48.751Z,1007.58
2023-10-03T05:04:48.560Z,1007.55
2023-10-03T05:05:48.583Z,1007.53
2023-10-03T05:06:48.628Z,1007.50
2023-10-03T05:07:48.557Z,1007.50
2023-10-03T05:08:48.611Z,1007.48
2023-10-03T05:09:48.562Z,1007.44
2023-10-03T05:10:48.658Z,1007.43
2023-10-03T05:11:48.663Z,1007.42
2023-10-03T05:12:48.564Z,1007.38
2023-10-03T05:13:48.556Z,1007.38
2023-10-03T05:14:48.587Z,1007.36
2023-10-03T05:15:48.554Z,1007.36
2023-10-03T05:16:48.585Z,1007.29
2023-10-03T05:17:48.597Z,1007.29
2023-10-03T05:18:48.598Z,1007.28
2023-10-03T05:19:48.575Z,1007.32
2023-10-03T05:20:48.606Z,1007.26
2023-10-03T05:21:48.552Z,1007.23
2023-10-03T05:22:48.567Z,1007.18
2023-10-03T05:23:48.908Z,1007.15
2023-10-03T05:24:48.562Z,1007.18
2023-10-03T05:25:48.553Z,1007.13
2023-10-03T05:26:48.603Z,1007.12
2023-10-03T05:27:48.550Z,1007.13
2023-10-03T05:28:48.567Z,1007.15
2023-10-03T05:29:48.567Z,1007.12
2023-10-03T05:30:48.586Z,1007.19
2023-10-03T05:31:48.551Z,1007.16
2023-10-03T05:32:48.649Z,1007.11
2023-10-03T05:33:48.573Z,1007.13
2023-10-03T05:34:48.557Z,1007.10
2023-10-03T05:35:48.593Z,1007.06
2023-10-03T05:36:48.552Z,1007.01
2023-10-03T05:37:48.540Z,1006.98
2023-10-03T05:38:48.627Z,1006.92
2023-10-03T05:39:48.541Z,1006.89
2023-10-03T05:40:48.545Z,1006.90
2023-10-03T05:41:48.608Z,1006.90
2023-10-03T05:42:48.690Z,1006.87
2023-10-03T05:43:48.546Z,1006.87
2023-10-03T05:44:48.603Z,1006.87
2023-10-03T05:45:48.540Z,1006.91
2023-10-03T05:46:48.594Z,1006.84
2023-10-03T05:47:48.634Z,1006.82
2023-10-03T05:48:48.780Z,1006.74
2023-10-03T05:49:48.543Z,1006.70
2023-10-03T05:50:48.642Z,1006.67
2023-10-03T05:51:48.562Z,1006.65
2023-10-03T05:52:48.544Z,1006.63
2023-10-03T05:53:48.597Z,1006.58
2023-10-03T05:54:48.541Z,1006.65
2023-10-03T05:55:48.534Z,1006.57
2023-10-03T05:56:48.591Z,1006.62
2023-10-03T05:57:48.535Z,1006.64
2023-10-03T05:58:48.537Z,1006.56
2023-10-03T06:00:48.543Z,1006.63
2023-10-03T06:01:48.544Z,1006.57
2023-10-03T06:02:48.965Z,1006.57
2023-10-03T06:03:48.670Z,1006.51
2023-10-03T06:04:48.543Z,1006.55
2023-10-03T06:05:48.581Z,1006.54
2023-10-03T06:06:48.528Z,1006.53
2023-10-03T06:07:48.568Z,1006.56
2023-10-03T06:08:48.576Z,1006.53
2023-10-03T06:09:48.532Z,1006.53
2023-10-03T06:10:48.532Z,1006.58
2023-10-03T06:11:48.616Z,1006.55
2023-10-03T06:12:48.531Z,1006.59
2023-10-03T06:13:48.530Z,1006.60
2023-10-03T06:14:48.557Z,1006.69
2023-10-03T06:15:48.532Z,1006.66
2023-10-03T06:16:48.561Z,1006.67
2023-10-03T06:17:48.650Z,1006.72
2023-10-03T06:18:48.562Z,1006.67
2023-10-03T06:19:48.530Z,1006.62
2023-10-03T06:20:48.622Z,1006.66
2023-10-03T06:21:48.663Z,1006.66
2023-10-03T06:22:48.526Z,1006.59
2023-10-03T06:23:48.585Z,1006.57
2023-10-03T06:24:48.528Z,1006.50
2023-10-03T06:25:48.527Z,1006.52
2023-10-03T06:26:48.576Z,1006.48
2023-10-03T06:27:48.537Z,1006.46
2023-10-03T06:28:48.525Z,1006.40
2023-10-03T06:29:48.584Z,1006.37
2023-10-03T06:30:48.587Z,1006.39
2023-10-03T06:31:48.530Z,1006.37
2023-10-03T06:32:48.631Z,1006.39
2023-10-03T06:33:48.724Z,1006.36
2023-10-03T06:34:48.527Z,1006.31
2023-10-03T06:35:48.596Z,1006.29
2023-10-03T06:36:48.523Z,1006.27
2023-10-03T06:37:48.525Z,1006.27
2023-10-03T06:38:48.548Z,1006.31
2023-10-03T06:39:48.545Z,1006.25
2023-10-03T06:40:48.534Z,1006.22
2023-10-03T06:41:48.539Z,1006.21
2023-10-03T06:42:48.529Z,1006.23
2023-10-03T06:43:48.532Z,1006.17
2023-10-03T06:44:48.582Z,1006.26
2023-10-03T06:45:48.526Z,1006.23
2023-10-03T06:46:48.545Z,1006.28
2023-10-03T06:47:48.574Z,1006.30
2023-10-03T06:48:48.544Z,1006.29
2023-10-03T06:49:48.524Z,1006.32
2023-10-03T06:50:48.656Z,1006.32
2023-10-03T06:51:48.528Z,1006.32
2023-10-03T06:52:48.570Z,1006.34
2023-10-03T06:53:48.691Z,1006.36
2023-10-03T06:54:48.521Z,1006.35
2023-10-03T06:55:48.544Z,1006.40
2023-10-03T06:56:48.560Z,1006.39
2023-10-03T06:57:50.218Z,1006.42
2023-10-03T06:58:48.541Z,1006.45
2023-10-03T06:59:48.584Z,1006.42
2023-10-03T07:00:48.578Z,1006.44
2023-10-03T07:01:48.531Z,1006.44
2023-10-03T07:02:48.694Z,1006.42
2023-10-03T07:03:48.664Z,1006.40
2023-10-03T07:04:48.546Z,1006.39
2023-10-03T07:05:48.627Z,1006.38
2023-10-03T07:06:48.517Z,1006.31
2023-10-03T07:07:48.518Z,1006.25
2023-10-03T07:08:48.523Z,1006.29
2023-10-03T07:09:48.530Z,1006.26
2023-10-03T07:10:48.521Z,1006.24
2023-10-03T07:11:48.679Z,1006.29
2023-10-03T07:12:48.519Z,1006.28
2023-10-03T07:13:48.542Z,1006.36
2023-10-03T07:14:48.602Z,1006.25
2023-10-03T07:15:48.528Z,1006.17
2023-10-03T07:16:48.552Z,1006.19
2023-10-03T07:17:48.621Z,1006.11
2023-10-03T07:18:48.741Z,1006.08
2023-10-03T07:19:48.521Z,1006.08
2023-10-03T07:20:48.594Z,1006.03
2023-10-03T07:21:48.528Z,1006.01
2023-10-03T07:22:48.541Z,1005.92
2023-10-03T07:23:48.547Z,1005.88
2023-10-03T07:24:48.529Z,1005.91
2023-10-03T07:25:48.522Z,1005.90
2023-10-03T07:26:48.555Z,1005.90
2023-10-03T07:27:48.554Z,1005.99
2023-10-03T07:28:48.528Z,1006.06
2023-10-03T07:29:48.625Z,1006.10
2023-10-03T07:30:48.588Z,1006.14
2023-10-03T07:31:48.546Z,1006.09
2023-10-03T07:32:48.586Z,1006.04
2023-10-03T07:33:48.612Z,1006.09
2023-10-03T07:34:48.518Z,1006.11
2023-10-03T07:35:48.589Z,1006.13
2023-10-03T07:36:48.525Z,1006.19
2023-10-03T07:37:48.533Z,1006.19
2023-10-03T07:38:48.564Z,1006.16
2023-10-03T07:39:48.543Z,1006.05
2023-10-03T07:40:48.605Z,1006.03
2023-10-03T07:41:48.556Z,1006.05
2023-10-03T07:42:48.528Z,1006.04
2023-10-03T07:43:48.607Z,1006.00
2023-10-03T07:44:48.546Z,1005.97
2023-10-03T07:45:48.529Z,1005.97
2023-10-03T07:46:48.596Z,1005.92
2023-10-03T07:47:48.599Z,1005.91
2023-10-03T07:48:48.612Z,1006.00
2023-10-03T07:49:48.531Z,1006.01
2023-10-03T07:50:48.551Z,1006.08
2023-10-03T07:51:48.529Z,1006.11
2023-10-03T07:52:48.533Z,1006.13
2023-10-03T07:53:48.587Z,1006.09
2023-10-03T07:54:48.530Z,1006.09
2023-10-03T07:55:48.534Z,1006.07
2023-10-03T07:56:48.561Z,1006.09
2023-10-03T07:57:48.526Z,1006.05
2023-10-03T07:58:48.534Z,1006.03
2023-10-03T07:59:48.591Z,1006.06
2023-10-03T08:00:48.540Z,1006.06
2023-10-03T08:02:00.332Z,1006.04
2023-10-03T08:02:48.648Z,1006.03
2023-10-03T08:03:50.922Z,1006.10
2023-10-03T08:04:48.697Z,1006.21
2023-10-03T08:05:48.620Z,1006.21
2023-10-03T08:06:48.547Z,1006.12
2023-10-03T08:07:48.539Z,1006.12
2023-10-03T08:08:48.611Z,1006.04
2023-10-03T08:09:48.549Z,1006.08
2023-10-03T08:10:48.546Z,1006.05
2023-10-03T08:11:48.755Z,1006.02
2023-10-03T08:12:48.546Z,1006.01
2023-10-03T08:13:48.549Z,1006.09
2023-10-03T08:14:48.607Z,1006.14
2023-10-03T08:15:48.579Z,1006.09
2023-10-03T08:16:48.700Z,1006.10
2023-10-03T08:17:48.657Z,1006.08
2023-10-03T08:18:48.641Z,1006.39
2023-10-03T08:19:48.549Z,1006.77
2023-10-03T08:20:48.594Z,1006.71
2023-10-03T08:21:48.557Z,1006.92
2023-10-03T08:22:48.558Z,1007.06
2023-10-03T08:23:48.572Z,1007.15
2023-10-03T08:24:48.572Z,1007.25
2023-10-03T08:25:48.561Z,1007.17
2023-10-03T08:26:48.617Z,1007.11
2023-10-03T08:27:48.564Z,1007.17
2023-10-03T08:28:48.569Z,1007.12
2023-10-03T08:29:48.576Z,1007.06
2023-10-03T08:30:48.624Z,1007.22
2023-10-03T08:31:48.594Z,1007.16
2023-10-03T08:32:48.663Z,1007.18
2023-10-03T08:33:48.682Z,1007.14
2023-10-03T08:34:48.625Z,1007.08
2023-10-03T08:35:48.626Z,1006.93
2023-10-03T08:36:48.592Z,1006.60
2023-10-03T08:37:48.602Z,1006.19
2023-10-03T08:38:48.680Z,1005.90
2023-10-03T08:39:48.630Z,1005.81
2023-10-03T08:40:48.611Z,1005.80
2023-10-03T08:41:48.641Z,1005.95
2023-10-03T08:42:48.620Z,1005.99
2023-10-03T08:43:48.621Z,1006.09
2023-10-03T08:44:48.661Z,1006.01
2023-10-03T08:45:48.634Z,1005.96
2023-10-03T08:46:48.632Z,1006.00
2023-10-03T08:47:48.777Z,1005.80
2023-10-03T08:48:48.731Z,1005.86
2023-10-03T08:49:48.646Z,1005.82
2023-10-03T08:50:49.010Z,1006.05
2023-10-03T08:51:48.679Z,1006.02
2023-10-03T08:52:49.179Z,1005.98
2023-10-03T08:53:48.730Z,1006.13
2023-10-03T08:54:48.670Z,1005.99
2023-10-03T08:55:48.674Z,1005.82
2023-10-03T08:56:48.742Z,1005.47
2023-10-03T08:57:48.681Z,1005.46
2023-10-03T08:58:48.695Z,1005.40
2023-10-03T08:59:48.725Z,1005.43
2023-10-03T09:00:48.725Z,1005.54
2023-10-03T09:01:48.715Z,1005.46
2023-10-03T09:02:53.627Z,1005.52
2023-10-03T09:03:49.667Z,1005.70
2023-10-03T09:04:48.752Z,1005.63
2023-10-03T09:05:48.801Z,1005.43
2023-10-03T09:06:48.730Z,1005.44
2023-10-03T09:07:48.798Z,1005.63
2023-10-03T09:08:48.801Z,1005.72
2023-10-03T09:09:48.746Z,1005.52
2023-10-03T09:10:48.741Z,1005.46
2023-10-03T09:11:48.754Z,1005.37
2023-10-03T09:12:48.746Z,1005.48
2023-10-03T09:13:48.752Z,1005.77
2023-10-03T09:14:48.774Z,1005.38
2023-10-03T09:15:48.760Z,1005.43
2023-10-03T09:16:48.809Z,1005.33
2023-10-03T09:17:48.842Z,1005.39
2023-10-03T09:18:48.831Z,1005.35
2023-10-03T09:19:48.808Z,1005.37
2023-10-03T09:20:48.849Z,1005.37
2023-10-03T09:21:48.842Z,1005.69
2023-10-03T09:22:48.790Z,1005.67
2023-10-03T09:23:48.837Z,1005.63
2023-10-03T09:24:49.102Z,1005.48
2023-10-03T09:25:48.798Z,1005.39
2023-10-03T09:26:49.512Z,1005.53
2023-10-03T09:27:48.807Z,1005.49
2023-10-03T09:28:48.813Z,1005.44
2023-10-03T09:29:48.852Z,1005.41
2023-10-03T09:30:48.827Z,1005.47
2023-10-03T09:31:49.257Z,1005.49
2023-10-03T09:32:48.903Z,1005.41
2023-10-03T09:33:48.926Z,1005.47
2023-10-03T09:34:48.842Z,1005.57
2023-10-03T09:35:48.859Z,1005.64
2023-10-03T09:36:48.846Z,1005.64
2023-10-03T09:37:48.848Z,1005.63
2023-10-03T09:38:48.949Z,1005.77
2023-10-03T09:39:48.863Z,1005.69
2023-10-03T09:40:48.861Z,1005.78
2023-10-03T09:41:48.881Z,1005.78
2023-10-03T09:42:48.869Z,1005.73
2023-10-03T09:43:48.879Z,1005.68
2023-10-03T09:44:48.904Z,1005.62
2023-10-03T09:45:48.983Z,1005.65
2023-10-03T09:46:48.891Z,1005.48
2023-10-03T09:47:48.957Z,1005.52
2023-10-03T09:48:49.033Z,1005.41
2023-10-03T09:49:48.911Z,1005.43
2023-10-03T09:50:48.938Z,1005.66
2023-10-03T09:51:48.929Z,1005.70
2023-10-03T09:52:48.921Z,1005.58
2023-10-03T09:53:48.949Z,1005.60
2023-10-03T09:54:48.920Z,1005.60
2023-10-03T09:55:48.922Z,1005.57
2023-10-03T09:56:49.006Z,1005.54
2023-10-03T09:57:48.936Z,1005.52
2023-10-03T09:58:48.936Z,1005.51
2023-10-03T09:59:48.964Z,1005.47
2023-10-03T10:00:48.953Z,1005.67
2023-10-03T10:01:49.001Z,1005.33
2023-10-03T10:02:49.108Z,1005.29
2023-10-03T10:03:49.059Z,1005.33
2023-10-03T10:04:48.976Z,1005.48
2023-10-03T10:05:48.996Z,1005.61
2023-10-03T10:06:49.111Z,1005.49
2023-10-03T10:07:49.004Z,1005.65
2023-10-03T10:08:49.020Z,1005.44
2023-10-03T10:09:49.012Z,1005.39
2023-10-03T10:10:48.999Z,1005.53
2023-10-03T10:11:49.020Z,1005.60
2023-10-03T10:12:49.006Z,1005.54
2023-10-03T10:13:49.011Z,1005.66
2023-10-03T10:14:49.099Z,1005.54
2023-10-03T10:15:49.056Z,1005.53
2023-10-03T10:16:49.025Z,1005.27
2023-10-03T10:17:49.088Z,1005.32
2023-10-03T10:18:49.081Z,1005.38
2023-10-03T10:19:49.125Z,1005.46
2023-10-03T10:20:49.059Z,1005.50
2023-10-03T10:21:49.051Z,1005.50
2023-10-03T10:22:49.063Z,1005.49
2023-10-03T10:23:49.109Z,1005.52
2023-10-03T10:24:49.077Z,1005.61
2023-10-03T10:25:49.074Z,1005.51
2023-10-03T10:26:49.103Z,1005.85
2023-10-03T10:27:49.086Z,1006.24
2023-10-03T10:28:49.093Z,1006.26
2023-10-03T10:29:49.122Z,1006.18
2023-10-03T10:30:49.107Z,1006.08
2023-10-03T10:31:49.128Z,1006.14
2023-10-03T10:32:49.224Z,1006.01
2023-10-03T10:33:49.597Z,1006.36
2023-10-03T10:34:49.229Z,1006.23
2023-10-03T10:35:49.193Z,1006.44
2023-10-03T10:36:49.144Z,1006.14
2023-10-03T10:37:49.151Z,1006.28
2023-10-03T10:38:49.208Z,1006.23
2023-10-03T10:39:49.188Z,1006.21
2023-10-03T10:40:49.171Z,1005.83
2023-10-03T10:41:49.197Z,1005.73
2023-10-03T10:42:49.179Z,1005.73
2023-10-03T10:43:49.187Z,1005.66
2023-10-03T10:44:49.234Z,1005.86
2023-10-03T10:45:49.214Z,1006.16
2023-10-03T10:46:49.206Z,1005.88
2023-10-03T10:47:49.329Z,1005.97
2023-10-03T10:48:49.394Z,1005.85
2023-10-03T10:49:49.278Z,1005.84
2023-10-03T10:50:49.259Z,1005.88
2023-10-03T10:51:49.240Z,1005.52
2023-10-03T10:52:49.256Z,1005.53
2023-10-03T10:53:49.284Z,1005.43
2023-10-03T10:54:49.274Z,1005.30
2023-10-03T10:55:49.288Z,1005.24
2023-10-03T10:56:49.315Z,1005.20
2023-10-03T10:57:49.280Z,1005.22
2023-10-03T10:58:49.295Z,1005.18
2023-10-03T10:59:49.330Z,1005.26
2023-10-03T11:00:49.305Z,1005.24
2023-10-03T11:03:32.737Z,1005.13
2023-10-03T11:04:32.677Z,1005.11
2023-10-03T11:05:32.666Z,1005.06
2023-10-03T11:06:32.650Z,1005.07
2023-10-03T11:07:32.671Z,1005.05
2023-10-03T11:08:32.685Z,1005.07
2023-10-03T11:09:32.682Z,1005.12
2023-10-03T11:10:35.749Z,1005.09
2023-10-03T11:11:32.714Z,1005.14
2023-10-03T11:12:32.695Z,1005.13
2023-10-03T11:13:32.704Z,1005.14
2023-10-03T11:14:32.734Z,1005.06
2023-10-03T11:15:32.713Z,1005.13
2023-10-03T11:16:32.722Z,1005.13
2023-10-03T11:17:32.825Z,1005.20
2023-10-03T11:18:32.936Z,1005.16
2023-10-03T11:19:32.770Z,1005.15
2023-10-03T11:20:32.767Z,1005.22
2023-10-03T11:21:32.758Z,1005.22
2023-10-03T11:22:32.756Z,1005.25
2023-10-03T11:23:32.814Z,1005.24
2023-10-03T11:24:32.773Z,1005.18
2023-10-03T11:25:32.778Z,1005.24
2023-10-03T11:26:32.920Z,1005.24
2023-10-03T11:27:32.815Z,1005.28
2023-10-03T11:28:32.885Z,1005.39
2023-10-03T11:29:32.818Z,1005.50
2023-10-03T11:30:32.800Z,1005.43
2023-10-03T11:31:32.831Z,1005.42
2023-10-03T11:32:32.952Z,1005.36
2023-10-03T11:33:32.893Z,1005.28
2023-10-03T11:34:32.852Z,1005.26
2023-10-03T11:35:32.851Z,1005.26
2023-10-03T11:36:32.838Z,1005.34
2023-10-03T11:37:32.847Z,1005.44
2023-10-03T11:38:32.969Z,1005.42
2023-10-03T11:39:32.861Z,1005.47
2023-10-03T11:40:32.871Z,1005.46
2023-10-03T11:41:33.013Z,1005.40
2023-10-03T11:42:32.874Z,1005.55
2023-10-03T11:43:32.906Z,1005.48
2023-10-03T11:44:32.926Z,1005.36
2023-10-03T11:45:33.112Z,1005.34
2023-10-03T11:46:32.997Z,1005.35
2023-10-03T11:47:32.958Z,1005.33
2023-10-03T11:48:33.084Z,1005.27
2023-10-03T11:49:32.921Z,1005.25
2023-10-03T11:50:33.012Z,1005.29
2023-10-03T11:51:32.934Z,1005.21
2023-10-03T11:52:32.935Z,1005.31
2023-10-03T11:53:33.006Z,1005.25
2023-10-03T11:54:32.963Z,1005.24
2023-10-03T11:55:33.061Z,1005.10
2023-10-03T11:56:33.014Z,1005.05
2023-10-03T11:57:32.966Z,1005.26
2023-10-03T11:58:32.969Z,1005.32
2023-10-03T11:59:33.013Z,1005.52
2023-10-03T12:00:32.976Z,1005.39
2023-10-03T12:01:33.003Z,1005.26
2023-10-03T12:02:33.018Z,1005.36
2023-10-03T12:03:33.090Z,1005.34
2023-10-03T12:04:33.052Z,1005.40
2023-10-03T12:05:33.014Z,1005.46
2023-10-03T12:06:33.000Z,1005.45
2023-10-03T12:07:33.064Z,1005.37
2023-10-03T12:08:33.014Z,1005.30